Grobbendonk, Belgium
Current Conditions -  °F | °C
As of 6:50 AM on Friday 28 Nov 2014 (Local Time) from EBAW Reporting Station
Clear Clear  
Wind Chill: 37°   Ceiling: Unl
Heat Index: 43°   Visibility: 4mi
Dew Point: 39°   Wind: 9mph
Humidity: 87%   Direction: 90°E
Pressure: 29.68"   Gusts: NA
Location:  51.19°N, 4.74°E
Report Text: EBAW 280550Z 09008KT 7000 NSC 06/04 Q1005 NOSIG
Loading
Personal Weather Stations






























Interactive Weather Map New forecast layout! Learn more

10-Day Weather Forecast

Advertisements
Track Severe Weather on mobile